createdAt,value
2019-04-26T00:02:12.292Z,12.43
2019-04-26T00:04:38.901Z,11.95
2019-04-26T00:07:05.414Z,11.38
2019-04-26T00:09:37.389Z,12.20
2019-04-26T00:12:05.678Z,14.75
2019-04-26T00:14:36.701Z,12.45
2019-04-26T00:19:31.563Z,12.45
2019-04-26T00:21:58.399Z,8.93
2019-04-26T00:24:25.221Z,9.38
2019-04-26T00:26:51.737Z,9.43
2019-04-26T00:29:18.982Z,14.30
2019-04-26T00:31:45.500Z,8.18
2019-04-26T00:34:12.460Z,10.45
2019-04-26T00:36:39.812Z,10.10
2019-04-26T00:39:06.336Z,10.43
2019-04-26T00:41:32.869Z,10.08
2019-04-26T00:43:59.405Z,10.40
2019-04-26T00:46:27.658Z,8.70
2019-04-26T00:48:56.457Z,9.38
2019-04-26T00:51:23.544Z,11.85
2019-04-26T00:53:50.233Z,12.53
2019-04-26T00:56:18.006Z,10.28
2019-04-26T00:58:45.692Z,7.72
2019-04-26T01:01:12.294Z,10.72
2019-04-26T01:03:39.015Z,9.13
2019-04-26T01:06:07.384Z,8.50
2019-04-26T01:08:33.606Z,8.35
2019-04-26T01:10:59.878Z,10.30
2019-04-26T01:13:26.258Z,12.75
2019-04-26T01:15:52.476Z,8.18
2019-04-26T01:18:18.774Z,9.43
2019-04-26T01:20:47.985Z,11.08
2019-04-26T01:23:18.773Z,10.90
2019-04-26T01:26:07.174Z,14.33
2019-04-26T01:28:49.249Z,11.53
2019-04-26T01:31:15.581Z,11.15
2019-04-26T01:33:43.326Z,12.30
2019-04-26T01:36:13.307Z,8.83
2019-04-26T01:38:39.527Z,9.25
2019-04-26T01:41:10.799Z,14.70
2019-04-26T01:43:41.113Z,11.20
2019-04-26T01:46:12.748Z,8.08
2019-04-26T01:48:46.324Z,10.40
2019-04-26T01:51:20.196Z,11.08
2019-04-26T01:53:50.443Z,10.38
2019-04-26T01:56:21.816Z,13.53
2019-04-26T01:58:48.793Z,14.60
2019-04-26T02:01:29.528Z,10.25
2019-04-26T02:03:56.023Z,12.33
2019-04-26T02:06:28.788Z,8.63
2019-04-26T02:08:51.154Z,9.45
2019-04-26T02:11:17.712Z,8.88
2019-04-26T02:13:44.221Z,8.38
2019-04-26T02:16:10.392Z,8.90
2019-04-26T02:18:36.837Z,9.48
2019-04-26T02:21:16.941Z,9.78
2019-04-26T02:23:49.047Z,6.55
2019-04-26T02:26:35.117Z,8.98
2019-04-26T02:29:03.766Z,7.83
2019-04-26T02:31:31.487Z,6.92
2019-04-26T02:34:00.778Z,5.72
2019-04-26T02:36:47.952Z,7.10
2019-04-26T02:38:59.027Z,6.03
2019-04-26T02:41:28.122Z,4.10
2019-04-26T02:43:58.091Z,10.53
2019-04-26T02:46:31.206Z,5.30
2019-04-26T02:49:11.655Z,6.03
2019-04-26T02:51:41.708Z,7.97
2019-04-26T02:54:14.744Z,6.58
2019-04-26T02:56:44.820Z,11.12
2019-04-26T02:59:34.565Z,10.82
2019-04-26T03:02:05.349Z,8.40
2019-04-26T03:04:35.992Z,7.40
2019-04-26T03:07:06.198Z,6.50
2019-04-26T03:09:37.031Z,10.48
2019-04-26T03:12:07.013Z,6.25
2019-04-26T03:14:42.029Z,7.00
2019-04-26T03:17:27.827Z,7.30
2019-04-26T03:20:02.888Z,5.47
2019-04-26T03:22:37.364Z,7.15
2019-04-26T03:25:36.963Z,9.75
2019-04-26T03:28:22.188Z,6.70
2019-04-26T03:31:21.752Z,5.62
2019-04-26T03:34:03.917Z,8.88
2019-04-26T03:36:37.870Z,8.28
2019-04-26T03:39:22.068Z,6.00
2019-04-26T03:42:05.250Z,5.35
2019-04-26T03:44:50.032Z,6.92
2019-04-26T03:47:25.987Z,9.75
2019-04-26T03:49:58.843Z,6.45
2019-04-26T03:52:47.116Z,6.92
2019-04-26T03:55:27.893Z,8.10
2019-04-26T03:58:05.786Z,5.70
2019-04-26T04:00:49.334Z,7.25
2019-04-26T04:03:30.245Z,7.17
2019-04-26T04:06:00.313Z,8.08
2019-04-26T04:08:46.671Z,6.63
2019-04-26T04:11:17.503Z,7.15
2019-04-26T04:13:51.046Z,7.62
2019-04-26T04:16:22.511Z,6.58
2019-04-26T04:19:09.360Z,7.60
2019-04-26T04:21:55.865Z,8.15
2019-04-26T04:24:25.959Z,9.00
2019-04-26T04:27:01.873Z,30.27
2019-04-26T04:30:02.231Z,12.03
2019-04-26T04:32:42.469Z,6.75
2019-04-26T04:35:11.606Z,6.45
2019-04-26T04:38:07.748Z,5.95
2019-04-26T04:40:27.323Z,8.10
2019-04-26T04:43:32.855Z,6.95
2019-04-26T04:46:25.983Z,11.33
2019-04-26T04:49:19.313Z,29.87
2019-04-26T04:52:10.468Z,26.33
2019-04-26T04:54:42.670Z,5.35
2019-04-26T04:57:18.498Z,6.80
2019-04-26T05:00:08.021Z,5.22
2019-04-26T05:02:51.909Z,6.65
2019-04-26T05:06:06.666Z,6.12
2019-04-26T05:08:36.787Z,17.12
2019-04-26T05:11:23.667Z,7.12
2019-04-26T05:14:10.273Z,11.38
2019-04-26T05:17:04.363Z,8.85
2019-04-26T05:19:46.857Z,9.53
2019-04-26T05:22:49.136Z,9.48
2019-04-26T05:25:53.522Z,9.10
2019-04-26T05:28:43.459Z,8.15
2019-04-26T05:31:42.716Z,10.78
2019-04-26T05:34:20.624Z,12.35
2019-04-26T05:36:59.590Z,7.10
2019-04-26T05:39:29.501Z,11.78
2019-04-26T05:42:13.463Z,9.33
2019-04-26T05:45:15.262Z,9.70
2019-04-26T05:48:12.963Z,6.00
2019-04-26T05:51:21.110Z,10.05
2019-04-26T05:54:20.086Z,8.53
2019-04-26T05:56:56.273Z,9.65
2019-04-26T05:59:35.165Z,11.03
2019-04-26T06:02:37.865Z,9.45
2019-04-26T06:05:18.644Z,11.83
2019-04-26T06:08:36.061Z,7.10
2019-04-26T06:11:16.700Z,10.63
2019-04-26T06:13:57.816Z,12.47
2019-04-26T06:19:17.387Z,16.48
2019-04-26T06:21:52.181Z,10.10
2019-04-26T06:24:28.010Z,12.28
2019-04-26T06:27:11.027Z,12.07
2019-04-26T06:29:44.181Z,6.10
2019-04-26T06:32:16.907Z,8.10
2019-04-26T06:35:01.936Z,10.85
2019-04-26T06:37:39.782Z,5.53
2019-04-26T06:40:15.917Z,7.75
2019-04-26T06:43:05.693Z,4.65
2019-04-26T06:45:56.885Z,7.65
2019-04-26T06:48:31.939Z,7.08
2019-04-26T06:51:24.152Z,9.65
2019-04-26T06:53:54.619Z,11.30
2019-04-26T06:56:47.332Z,7.28
2019-04-26T06:59:36.520Z,10.35
2019-04-26T07:02:19.701Z,5.83
2019-04-26T07:04:55.821Z,7.45
2019-04-26T07:07:25.851Z,7.83
2019-04-26T07:09:59.084Z,11.55
2019-04-26T07:12:38.136Z,5.47
2019-04-26T07:15:29.009Z,7.37
2019-04-26T07:18:10.876Z,7.65
2019-04-26T07:20:54.874Z,7.97
2019-04-26T07:23:41.871Z,7.58
2019-04-26T07:26:28.723Z,5.00
2019-04-26T07:29:26.307Z,4.45
2019-04-26T07:31:56.435Z,6.75
2019-04-26T07:34:54.107Z,8.47
2019-04-26T07:37:32.878Z,4.58
2019-04-26T07:40:11.432Z,7.03
2019-04-26T07:42:55.924Z,5.05
2019-04-26T07:45:33.684Z,5.10
2019-04-26T07:48:20.657Z,4.90
2019-04-26T07:51:23.861Z,11.57
2019-04-26T07:54:27.897Z,7.70
2019-04-26T07:57:22.474Z,8.33
2019-04-26T08:00:08.962Z,7.58
2019-04-26T08:02:52.920Z,8.20
2019-04-26T08:05:24.789Z,6.30
2019-04-26T08:07:57.625Z,7.12
2019-04-26T08:10:26.734Z,10.72
2019-04-26T08:13:08.505Z,6.95
2019-04-26T08:15:43.383Z,9.25
2019-04-26T08:18:17.033Z,7.08
2019-04-26T08:20:48.848Z,7.35
2019-04-26T08:23:39.193Z,4.97
2019-04-26T08:25:53.839Z,7.75
2019-04-26T08:28:23.359Z,9.77
2019-04-26T08:30:54.635Z,6.67
2019-04-26T08:33:26.605Z,6.22
2019-04-26T08:35:55.911Z,8.60
2019-04-26T08:38:24.887Z,7.72
2019-04-26T08:40:51.864Z,8.35
2019-04-26T08:43:27.425Z,10.58
2019-04-26T08:46:03.041Z,10.13
2019-04-26T08:48:39.180Z,3.70
2019-04-26T08:51:09.303Z,6.83
2019-04-26T08:53:39.354Z,5.05
2019-04-26T08:56:07.707Z,9.33
2019-04-26T08:58:37.686Z,9.80
2019-04-26T09:01:21.907Z,5.83
2019-04-26T09:03:53.840Z,5.58
2019-04-26T09:06:30.683Z,6.78
2019-04-26T09:09:00.755Z,7.75
2019-04-26T09:11:33.537Z,6.37
2019-04-26T09:14:00.639Z,7.58
2019-04-26T09:16:26.999Z,18.00
2019-04-26T09:18:57.248Z,7.90
2019-04-26T09:21:23.264Z,7.03
2019-04-26T09:24:08.460Z,14.90
2019-04-26T09:26:42.609Z,4.95
2019-04-26T09:29:22.303Z,7.60
2019-04-26T09:32:05.800Z,6.50
2019-04-26T09:34:35.142Z,8.05
2019-04-26T09:37:01.264Z,9.53
2019-04-26T09:39:27.703Z,5.12
2019-04-26T09:41:55.769Z,8.65
2019-04-26T09:44:42.945Z,7.42
2019-04-26T09:47:26.498Z,7.42
2019-04-26T09:49:57.339Z,7.22
2019-04-26T09:54:51.535Z,7.70
2019-04-26T09:57:17.975Z,10.08
2019-04-26T09:59:44.174Z,6.20
2019-04-26T10:02:12.669Z,9.38
2019-04-26T10:04:38.846Z,6.70
2019-04-26T10:07:05.114Z,5.45
2019-04-26T10:09:32.798Z,5.85
2019-04-26T10:12:01.065Z,9.08
2019-04-26T10:14:29.329Z,8.43
2019-04-26T10:17:00.156Z,5.30
2019-04-26T10:19:31.653Z,8.38
2019-04-26T10:21:58.236Z,4.60
2019-04-26T10:24:24.473Z,7.83
2019-04-26T10:26:50.669Z,5.08
2019-04-26T10:29:17.085Z,7.10
2019-04-26T10:31:43.205Z,7.10
2019-04-26T10:34:11.808Z,12.30
2019-04-26T10:36:37.460Z,6.03
2019-04-26T10:39:06.247Z,6.83
2019-04-26T10:41:34.171Z,6.83
2019-04-26T10:44:00.298Z,8.48
2019-04-26T10:46:28.352Z,8.28
2019-04-26T10:48:54.625Z,8.85
2019-04-26T10:51:24.133Z,8.78
2019-04-26T10:54:01.631Z,7.90
2019-04-26T10:56:34.550Z,10.20
2019-04-26T10:59:17.712Z,9.88
2019-04-26T11:01:44.040Z,6.40
2019-04-26T11:04:10.401Z,6.25
2019-04-26T11:06:36.679Z,8.35
2019-04-26T11:09:05.518Z,5.72
2019-04-26T11:11:33.104Z,6.75
2019-04-26T11:13:59.393Z,6.37
2019-04-26T11:16:25.575Z,6.78
2019-04-26T11:18:51.894Z,8.65
2019-04-26T11:21:20.811Z,7.12
2019-04-26T11:23:46.994Z,8.15
2019-04-26T11:26:13.330Z,8.00
2019-04-26T11:28:41.934Z,5.12
2019-04-26T11:31:07.957Z,9.43
2019-04-26T11:33:44.400Z,3.65
2019-04-26T11:36:03.331Z,5.65
2019-04-26T11:38:31.217Z,5.62
2019-04-26T11:41:06.231Z,5.00
2019-04-26T11:43:26.797Z,6.92
2019-04-26T11:46:03.765Z,6.50
2019-04-26T11:48:21.201Z,7.33
2019-04-26T11:50:48.203Z,6.30
2019-04-26T11:53:15.421Z,5.28
2019-04-26T11:55:41.584Z,5.62
2019-04-26T11:58:07.821Z,9.00
2019-04-26T12:00:38.775Z,7.40
2019-04-26T12:03:05.191Z,4.40
2019-04-26T12:05:33.373Z,6.28
2019-04-26T12:08:01.646Z,6.22
2019-04-26T12:10:27.919Z,8.63
2019-04-26T12:13:05.180Z,4.30
2019-04-26T12:15:30.063Z,4.90
2019-04-26T12:17:58.396Z,12.35
2019-04-26T12:20:22.395Z,8.90
2019-04-26T12:22:46.752Z,11.80
2019-04-26T12:25:13.480Z,4.33
2019-04-26T12:27:39.682Z,7.17
2019-04-26T12:30:06.631Z,6.30
2019-04-26T12:32:32.992Z,8.83
2019-04-26T12:34:59.225Z,7.90
2019-04-26T12:37:25.552Z,8.55
2019-04-26T12:39:51.843Z,10.28
2019-04-26T12:42:18.062Z,7.97
2019-04-26T12:44:52.274Z,7.62
2019-04-26T12:47:20.435Z,6.17
2019-04-26T12:49:46.558Z,7.85
2019-04-26T12:52:13.039Z,6.75
2019-04-26T12:54:42.909Z,6.80
2019-04-26T12:57:07.451Z,8.78
2019-04-26T12:59:43.661Z,5.12
2019-04-26T13:02:05.847Z,6.00
2019-04-26T13:04:36.016Z,7.67
2019-04-26T13:07:06.921Z,7.35
2019-04-26T13:09:35.687Z,8.85
2019-04-26T13:12:03.705Z,6.00
2019-04-26T13:14:32.053Z,9.20
2019-04-26T13:17:02.823Z,6.65
2019-04-26T13:19:29.163Z,7.03
2019-04-26T13:21:55.289Z,7.92
2019-04-26T13:24:21.459Z,8.40
2019-04-26T13:26:50.037Z,7.25
2019-04-26T13:29:15.841Z,38.80
2019-04-26T13:31:42.023Z,10.55
2019-04-26T13:34:08.364Z,7.00
2019-04-26T13:36:34.479Z,6.33
2019-04-26T13:39:00.714Z,6.47
2019-04-26T13:41:28.018Z,9.20
2019-04-26T13:43:57.127Z,8.50
2019-04-26T13:46:42.791Z,10.18
2019-04-26T13:49:14.226Z,5.65
2019-04-26T13:51:40.879Z,4.83
2019-04-26T13:54:07.187Z,6.62
2019-04-26T13:56:35.924Z,11.33
2019-04-26T13:59:01.411Z,8.28
2019-04-26T14:01:27.729Z,7.80
2019-04-26T14:03:54.962Z,7.87
2019-04-26T14:06:21.268Z,9.28
2019-04-26T14:08:47.539Z,11.33
2019-04-26T14:11:13.690Z,8.00
2019-04-26T14:13:41.096Z,13.10
2019-04-26T14:16:08.993Z,6.10
2019-04-26T14:18:38.982Z,9.90
2019-04-26T14:21:04.197Z,9.23
2019-04-26T14:23:35.369Z,8.30
2019-04-26T14:26:05.139Z,8.15
2019-04-26T14:28:31.702Z,9.08
2019-04-26T14:30:58.029Z,7.67
2019-04-26T14:33:27.080Z,10.05
2019-04-26T14:36:22.637Z,5.35
2019-04-26T14:38:49.137Z,6.60
2019-04-26T14:41:21.754Z,8.48
2019-04-26T14:43:43.577Z,5.53
2019-04-26T14:46:10.539Z,9.28
2019-04-26T14:48:40.612Z,11.70
2019-04-26T14:51:08.287Z,6.67
2019-04-26T14:53:36.308Z,7.92
2019-04-26T14:56:02.262Z,9.08
2019-04-26T14:58:30.292Z,8.63
2019-04-26T15:00:58.806Z,10.10
2019-04-26T15:03:29.965Z,9.60
2019-04-26T15:06:07.119Z,7.58
2019-04-26T15:08:34.307Z,12.70
2019-04-26T15:11:02.192Z,13.03
2019-04-26T15:13:28.718Z,14.00
2019-04-26T15:15:55.186Z,10.93
2019-04-26T15:18:22.492Z,18.00
2019-04-26T15:20:49.036Z,15.95
2019-04-26T15:23:15.387Z,16.42
2019-04-26T15:25:48.077Z,13.95
2019-04-26T15:28:12.021Z,16.77
2019-04-26T15:30:43.381Z,16.65
2019-04-26T15:33:09.002Z,16.07
2019-04-26T15:35:35.884Z,16.20
2019-04-26T15:38:02.492Z,15.80
2019-04-26T15:40:47.366Z,19.15
2019-04-26T15:43:32.647Z,20.40
2019-04-26T15:46:12.457Z,21.17
2019-04-26T15:48:55.766Z,20.30
2019-04-26T15:51:27.172Z,21.70
2019-04-26T15:53:53.076Z,21.33
2019-04-26T15:56:22.240Z,21.85
2019-04-26T15:58:49.181Z,26.05
2019-04-26T16:01:16.501Z,22.93
2019-04-26T16:03:44.625Z,23.10
2019-04-26T16:06:12.590Z,24.72
2019-04-26T16:08:42.726Z,23.05
2019-04-26T16:11:11.217Z,22.55
2019-04-26T16:13:35.491Z,22.30
2019-04-26T16:16:05.017Z,21.73
2019-04-26T16:18:32.363Z,22.58
2019-04-26T16:20:58.749Z,21.27
2019-04-26T16:23:38.116Z,20.10
2019-04-26T16:25:53.115Z,20.40
2019-04-26T16:28:31.042Z,19.35
2019-04-26T16:31:02.528Z,20.20
2019-04-26T16:33:34.543Z,18.87
2019-04-26T16:36:02.557Z,21.65
2019-04-26T16:38:34.606Z,18.30
2019-04-26T16:41:03.263Z,20.05
2019-04-26T16:43:39.523Z,18.52
2019-04-26T16:45:58.559Z,19.82
2019-04-26T16:48:25.888Z,19.45
2019-04-26T16:50:53.223Z,22.98
2019-04-26T16:53:41.430Z,28.02
2019-04-26T16:55:52.142Z,21.02
2019-04-26T16:58:16.353Z,20.85
2019-04-26T17:00:51.611Z,21.07
2019-04-26T17:03:11.436Z,21.20
2019-04-26T17:05:47.825Z,22.30
2019-04-26T17:08:10.189Z,23.87
2019-04-26T17:10:34.351Z,21.15
2019-04-26T17:13:00.638Z,22.30
2019-04-26T17:15:27.022Z,22.30
2019-04-26T17:17:53.396Z,26.48
2019-04-26T17:20:20.819Z,22.22
2019-04-26T17:23:00.779Z,23.02
2019-04-26T17:25:37.211Z,22.22
2019-04-26T17:28:04.768Z,24.50
2019-04-26T17:30:34.554Z,22.70
2019-04-26T17:32:59.868Z,23.98
2019-04-26T17:35:26.190Z,25.80
2019-04-26T17:37:52.327Z,23.92
2019-04-26T17:40:23.435Z,25.85
2019-04-26T17:42:47.036Z,26.10
2019-04-26T17:45:13.553Z,25.25
2019-04-26T17:47:41.822Z,30.68
2019-04-26T17:50:08.272Z,29.65
2019-04-26T17:52:36.002Z,29.63
2019-04-26T17:55:07.746Z,27.10
2019-04-26T17:57:36.725Z,30.70
2019-04-26T18:00:07.831Z,26.97
2019-04-26T18:02:41.191Z,29.23
2019-04-26T18:05:03.231Z,26.27
2019-04-26T18:07:42.404Z,26.27
2019-04-26T18:09:56.966Z,22.82
2019-04-26T18:12:24.500Z,20.23
2019-04-26T18:14:50.870Z,24.80
2019-04-26T18:17:25.070Z,23.62
2019-04-26T18:19:53.285Z,24.80
2019-04-26T18:22:37.898Z,23.92
2019-04-26T18:25:11.252Z,21.97
2019-04-26T18:27:38.412Z,17.20
2019-04-26T18:30:11.399Z,14.38
2019-04-26T18:32:42.137Z,10.35
2019-04-26T18:35:04.212Z,9.03
2019-04-26T18:37:30.457Z,8.65
2019-04-26T18:39:57.512Z,5.53
2019-04-26T18:42:27.046Z,6.05
2019-04-26T18:44:54.002Z,3.22
2019-04-26T18:47:28.867Z,3.30
2019-04-26T18:50:00.172Z,6.03
2019-04-26T18:52:28.460Z,3.92
2019-04-26T18:54:56.589Z,3.62
2019-04-26T18:57:23.845Z,2.95
2019-04-26T18:59:51.727Z,2.70
2019-04-26T19:02:19.910Z,2.95
2019-04-26T19:04:47.958Z,2.83
2019-04-26T19:07:15.919Z,2.90
2019-04-26T19:09:56.766Z,2.62
2019-04-26T19:12:12.535Z,2.60
2019-04-26T19:15:04.274Z,4.45
2019-04-26T19:17:34.299Z,4.62
2019-04-26T19:20:14.826Z,3.15
2019-04-26T19:22:46.543Z,3.00
2019-04-26T19:25:20.917Z,2.67
2019-04-26T19:27:48.090Z,4.55
2019-04-26T19:30:09.145Z,4.08
2019-04-26T19:32:39.672Z,3.92
2019-04-26T19:35:07.001Z,4.00
2019-04-26T19:37:36.765Z,3.30
2019-04-26T19:40:02.946Z,3.00
2019-04-26T19:42:32.279Z,3.50
2019-04-26T19:45:11.843Z,4.65
2019-04-26T19:47:28.877Z,6.28
2019-04-26T19:50:03.117Z,3.12
2019-04-26T19:52:39.493Z,3.70
2019-04-26T19:55:24.212Z,4.20
2019-04-26T19:58:12.191Z,3.62
2019-04-26T20:00:38.538Z,5.53
2019-04-26T20:03:04.250Z,4.35
2019-04-26T20:05:31.980Z,5.60
2019-04-26T20:08:02.378Z,6.20
2019-04-26T20:10:26.577Z,3.80
2019-04-26T20:12:53.018Z,10.15
2019-04-26T20:15:25.866Z,8.23
2019-04-26T20:17:52.544Z,4.00
2019-04-26T20:20:19.371Z,3.40
2019-04-26T20:22:43.891Z,5.25
2019-04-26T20:25:11.915Z,5.22
2019-04-26T20:27:38.160Z,6.20
2019-04-26T20:30:08.902Z,5.30
2019-04-26T20:32:37.035Z,7.95
2019-04-26T20:35:08.887Z,7.53
2019-04-26T20:37:35.127Z,8.00
2019-04-26T20:40:17.687Z,7.95
2019-04-26T20:42:31.643Z,7.22
2019-04-26T20:44:58.046Z,8.68
2019-04-26T20:47:24.538Z,8.48
2019-04-26T20:50:00.762Z,8.83
2019-04-26T20:52:21.471Z,8.20
2019-04-26T20:54:51.100Z,6.70
2019-04-26T20:57:15.446Z,10.90
2019-04-26T20:59:43.351Z,9.13
2019-04-26T21:02:09.677Z,7.95
2019-04-26T21:04:38.459Z,12.10
2019-04-26T21:07:06.674Z,12.80
2019-04-26T21:09:36.415Z,10.90
2019-04-26T21:12:01.914Z,5.92
2019-04-26T21:14:28.525Z,7.67
2019-04-26T21:16:54.687Z,9.60
2019-04-26T21:19:20.895Z,9.33
2019-04-26T21:21:49.800Z,5.17
2019-04-26T21:24:19.705Z,6.65
2019-04-26T21:27:04.431Z,7.65
2019-04-26T21:29:52.469Z,7.97
2019-04-26T21:32:26.734Z,6.37
2019-04-26T21:34:56.448Z,9.93
2019-04-26T21:37:24.456Z,9.80
2019-04-26T21:40:03.800Z,9.43
2019-04-26T21:44:59.834Z,10.63
2019-04-26T21:47:27.452Z,12.70
2019-04-26T21:49:58.901Z,6.85
2019-04-26T21:52:27.547Z,10.32
2019-04-26T21:54:53.112Z,10.05
2019-04-26T21:57:25.043Z,11.20
2019-04-26T21:59:47.032Z,14.75
2019-04-26T22:02:14.068Z,15.03
2019-04-26T22:04:40.274Z,14.30
2019-04-26T22:07:07.819Z,14.98
2019-04-26T22:09:43.047Z,12.43
2019-04-26T22:12:12.791Z,12.95
2019-04-26T22:17:16.340Z,17.32
2019-04-26T22:22:48.149Z,17.85
2019-04-26T22:25:15.956Z,14.18
2019-04-26T22:27:43.677Z,15.98
2019-04-26T22:30:13.331Z,13.50
2019-04-26T22:32:39.662Z,13.03
2019-04-26T22:35:05.987Z,14.43
2019-04-26T22:37:33.707Z,13.50
2019-04-26T22:40:00.072Z,13.65
2019-04-26T22:42:26.743Z,13.05
2019-04-26T22:44:54.938Z,15.15
2019-04-26T22:47:26.136Z,16.55
2019-04-26T22:49:52.412Z,16.65
2019-04-26T22:55:43.592Z,10.38
2019-04-26T22:58:09.971Z,14.25
2019-04-26T23:00:38.312Z,13.53
2019-04-26T23:03:07.197Z,12.68
2019-04-26T23:05:37.352Z,13.50
2019-04-26T23:08:03.346Z,12.10
2019-04-26T23:10:33.945Z,12.60
2019-04-26T23:13:07.419Z,12.10
2019-04-26T23:15:43.139Z,11.57
2019-04-26T23:18:17.083Z,11.68
2019-04-26T23:21:03.427Z,15.95
2019-04-26T23:23:31.054Z,12.00
2019-04-26T23:25:57.437Z,10.00
2019-04-26T23:28:23.735Z,11.10
2019-04-26T23:30:53.114Z,9.60
2019-04-26T23:33:19.561Z,11.03
2019-04-26T23:35:47.591Z,11.93
2019-04-26T23:38:13.795Z,10.35
2019-04-26T23:40:39.975Z,11.35
2019-04-26T23:43:06.257Z,9.85
2019-04-26T23:45:33.330Z,9.03
2019-04-26T23:47:59.728Z,10.15
2019-04-26T23:50:29.470Z,10.20
2019-04-26T23:52:54.053Z,12.05
2019-04-26T23:55:20.202Z,8.88
2019-04-26T23:57:46.424Z,8.18
